sensor_id;sensor_type;location;lat;lon;timestamp;temperature;humidity
11025;DHT22;22890;51.820;8.682;2023-06-10T00:01:07;17.90;99.90
11025;DHT22;22890;51.820;8.682;2023-06-10T00:03:33;18.00;99.90
11025;DHT22;22890;51.820;8.682;2023-06-10T00:06:00;17.90;99.90
11025;DHT22;22890;51.820;8.682;2023-06-10T00:08:27;17.90;99.90
11025;DHT22;22890;51.820;8.682;2023-06-10T00:10:55;17.80;99.90
11025;DHT22;22890;51.820;8.682;2023-06-10T00:13:22;17.80;99.90
11025;DHT22;22890;51.820;8.682;2023-06-10T00:15:49;17.80;99.90
11025;DHT22;22890;51.820;8.682;2023-06-10T00:18:15;17.70;99.90
11025;DHT22;22890;51.820;8.682;2023-06-10T00:20:43;17.90;99.90
11025;DHT22;22890;51.820;8.682;2023-06-10T00:23:09;17.70;99.90
11025;DHT22;22890;51.820;8.682;2023-06-10T00:25:36;17.70;99.90
11025;DHT22;22890;51.820;8.682;2023-06-10T00:28:03;17.70;99.90
11025;DHT22;22890;51.820;8.682;2023-06-10T00:30:29;17.70;99.90
11025;DHT22;22890;51.820;8.682;2023-06-10T00:32:56;17.60;99.90
11025;DHT22;22890;51.820;8.682;2023-06-10T00:35:23;17.60;99.90
11025;DHT22;22890;51.820;8.682;2023-06-10T00:37:49;17.60;99.90
11025;DHT22;22890;51.820;8.682;2023-06-10T00:40:16;17.50;99.90
11025;DHT22;22890;51.820;8.682;2023-06-10T00:42:43;17.60;99.90
11025;DHT22;22890;51.820;8.682;2023-06-10T00:45:10;17.50;99.90
11025;DHT22;22890;51.820;8.682;2023-06-10T00:47:37;17.50;99.90
11025;DHT22;22890;51.820;8.682;2023-06-10T00:50:05;17.50;99.90
11025;DHT22;22890;51.820;8.682;2023-06-10T00:52:32;17.40;99.90
11025;DHT22;22890;51.820;8.682;2023-06-10T00:55:01;17.40;99.90
11025;DHT22;22890;51.820;8.682;2023-06-10T00:57:27;17.40;99.90
11025;DHT22;22890;51.820;8.682;2023-06-10T00:59:56;17.40;99.90
11025;DHT22;22890;51.820;8.682;2023-06-10T01:02:23;17.30;99.90
11025;DHT22;22890;51.820;8.682;2023-06-10T01:04:50;17.30;99.90
11025;DHT22;22890;51.820;8.682;2023-06-10T01:07:28;17.30;99.90
11025;DHT22;22890;51.820;8.682;2023-06-10T01:10:16;17.30;99.90
11025;DHT22;22890;51.820;8.682;2023-06-10T01:12:49;17.30;99.90
11025;DHT22;22890;51.820;8.682;2023-06-10T01:15:20;17.20;99.90
11025;DHT22;22890;51.820;8.682;2023-06-10T01:17:56;17.20;99.90
11025;DHT22;22890;51.820;8.682;2023-06-10T01:20:29;17.20;99.90
11025;DHT22;22890;51.820;8.682;2023-06-10T01:22:56;17.10;99.90
11025;DHT22;22890;51.820;8.682;2023-06-10T01:25:25;17.10;99.90
11025;DHT22;22890;51.820;8.682;2023-06-10T01:30:59;17.00;99.90
11025;DHT22;22890;51.820;8.682;2023-06-10T01:33:36;17.00;99.90
11025;DHT22;22890;51.820;8.682;2023-06-10T01:36:04;17.00;99.90
11025;DHT22;22890;51.820;8.682;2023-06-10T01:38:42;16.90;99.90
11025;DHT22;22890;51.820;8.682;2023-06-10T01:41:10;16.70;99.90
11025;DHT22;22890;51.820;8.682;2023-06-10T01:43:39;16.70;99.90
11025;DHT22;22890;51.820;8.682;2023-06-10T01:46:06;16.70;99.90
11025;DHT22;22890;51.820;8.682;2023-06-10T01:48:33;16.70;99.90
11025;DHT22;22890;51.820;8.682;2023-06-10T01:51:00;16.80;99.90
11025;DHT22;22890;51.820;8.682;2023-06-10T01:53:27;16.70;99.90
11025;DHT22;22890;51.820;8.682;2023-06-10T01:55:53;16.80;99.90
11025;DHT22;22890;51.820;8.682;2023-06-10T01:58:20;16.80;99.90
11025;DHT22;22890;51.820;8.682;2023-06-10T02:00:47;16.80;99.90
11025;DHT22;22890;51.820;8.682;2023-06-10T02:03:14;16.90;99.90
11025;DHT22;22890;51.820;8.682;2023-06-10T02:05:41;16.80;99.90
11025;DHT22;22890;51.820;8.682;2023-06-10T02:08:08;16.80;99.90
11025;DHT22;22890;51.820;8.682;2023-06-10T02:10:35;16.90;99.90
11025;DHT22;22890;51.820;8.682;2023-06-10T02:13:01;16.70;99.90
11025;DHT22;22890;51.820;8.682;2023-06-10T02:15:28;16.70;99.90
11025;DHT22;22890;51.820;8.682;2023-06-10T02:17:55;16.70;99.90
11025;DHT22;22890;51.820;8.682;2023-06-10T02:20:23;16.60;99.90
11025;DHT22;22890;51.820;8.682;2023-06-10T02:22:50;16.60;99.90
11025;DHT22;22890;51.820;8.682;2023-06-10T02:25:16;16.50;99.90
11025;DHT22;22890;51.820;8.682;2023-06-10T02:27:43;16.50;99.90
11025;DHT22;22890;51.820;8.682;2023-06-10T02:30:10;16.50;99.90
11025;DHT22;22890;51.820;8.682;2023-06-10T02:32:37;16.40;99.90
11025;DHT22;22890;51.820;8.682;2023-06-10T02:35:04;16.30;99.90
11025;DHT22;22890;51.820;8.682;2023-06-10T02:37:32;16.30;99.90
11025;DHT22;22890;51.820;8.682;2023-06-10T02:39:59;16.30;99.90
11025;DHT22;22890;51.820;8.682;2023-06-10T02:42:26;16.40;99.90
11025;DHT22;22890;51.820;8.682;2023-06-10T02:44:53;16.20;99.90
11025;DHT22;22890;51.820;8.682;2023-06-10T02:47:30;16.20;99.90
11025;DHT22;22890;51.820;8.682;2023-06-10T02:49:57;16.20;99.90
11025;DHT22;22890;51.820;8.682;2023-06-10T02:52:24;16.20;99.90
11025;DHT22;22890;51.820;8.682;2023-06-10T02:54:51;16.20;99.90
11025;DHT22;22890;51.820;8.682;2023-06-10T02:57:18;16.10;99.90
11025;DHT22;22890;51.820;8.682;2023-06-10T02:59:44;16.10;99.90
11025;DHT22;22890;51.820;8.682;2023-06-10T03:02:11;16.10;99.90
11025;DHT22;22890;51.820;8.682;2023-06-10T03:04:44;16.00;99.90
11025;DHT22;22890;51.820;8.682;2023-06-10T03:07:15;16.20;99.90
11025;DHT22;22890;51.820;8.682;2023-06-10T03:09:42;15.90;99.90
11025;DHT22;22890;51.820;8.682;2023-06-10T03:12:12;15.90;99.90
11025;DHT22;22890;51.820;8.682;2023-06-10T03:14:44;15.80;99.90
11025;DHT22;22890;51.820;8.682;2023-06-10T03:17:10;15.70;99.90
11025;DHT22;22890;51.820;8.682;2023-06-10T03:19:41;15.60;99.90
11025;DHT22;22890;51.820;8.682;2023-06-10T03:22:10;15.60;99.90
11025;DHT22;22890;51.820;8.682;2023-06-10T03:24:43;15.50;99.90
11025;DHT22;22890;51.820;8.682;2023-06-10T03:27:10;15.50;99.90
11025;DHT22;22890;51.820;8.682;2023-06-10T03:29:39;15.50;99.90
11025;DHT22;22890;51.820;8.682;2023-06-10T03:32:07;15.50;99.90
11025;DHT22;22890;51.820;8.682;2023-06-10T03:34:36;15.40;99.90
11025;DHT22;22890;51.820;8.682;2023-06-10T03:37:03;15.40;99.90
11025;DHT22;22890;51.820;8.682;2023-06-10T03:39:31;15.40;99.90
11025;DHT22;22890;51.820;8.682;2023-06-10T03:41:59;15.50;99.90
11025;DHT22;22890;51.820;8.682;2023-06-10T03:44:27;15.50;99.90
11025;DHT22;22890;51.820;8.682;2023-06-10T03:46:55;15.50;99.90
11025;DHT22;22890;51.820;8.682;2023-06-10T03:49:23;15.50;99.90
11025;DHT22;22890;51.820;8.682;2023-06-10T03:51:53;15.40;99.90
11025;DHT22;22890;51.820;8.682;2023-06-10T03:54:20;15.40;99.90
11025;DHT22;22890;51.820;8.682;2023-06-10T03:56:47;15.50;99.90
11025;DHT22;22890;51.820;8.682;2023-06-10T03:59:14;15.40;99.90
11025;DHT22;22890;51.820;8.682;2023-06-10T04:01:42;15.50;99.90
11025;DHT22;22890;51.820;8.682;2023-06-10T04:04:11;15.50;99.90
11025;DHT22;22890;51.820;8.682;2023-06-10T04:06:38;15.60;99.90
11025;DHT22;22890;51.820;8.682;2023-06-10T04:09:05;15.70;99.90
11025;DHT22;22890;51.820;8.682;2023-06-10T04:11:32;15.80;99.90
11025;DHT22;22890;51.820;8.682;2023-06-10T04:13:59;15.90;99.90
11025;DHT22;22890;51.820;8.682;2023-06-10T04:16:26;16.10;99.90
11025;DHT22;22890;51.820;8.682;2023-06-10T04:18:53;16.10;99.90
11025;DHT22;22890;51.820;8.682;2023-06-10T04:21:20;16.20;99.90
11025;DHT22;22890;51.820;8.682;2023-06-10T04:23:49;16.30;99.90
11025;DHT22;22890;51.820;8.682;2023-06-10T04:26:16;16.40;99.90
11025;DHT22;22890;51.820;8.682;2023-06-10T04:28:43;16.60;99.90
11025;DHT22;22890;51.820;8.682;2023-06-10T04:31:10;16.70;99.90
11025;DHT22;22890;51.820;8.682;2023-06-10T04:33:37;16.90;99.90
11025;DHT22;22890;51.820;8.682;2023-06-10T04:36:05;17.10;99.90
11025;DHT22;22890;51.820;8.682;2023-06-10T04:38:34;17.20;99.90
11025;DHT22;22890;51.820;8.682;2023-06-10T04:41:01;17.40;99.90
11025;DHT22;22890;51.820;8.682;2023-06-10T04:43:31;17.60;99.90
11025;DHT22;22890;51.820;8.682;2023-06-10T04:45:59;17.80;99.90
11025;DHT22;22890;51.820;8.682;2023-06-10T04:48:27;17.90;99.90
11025;DHT22;22890;51.820;8.682;2023-06-10T04:50:54;18.00;99.90
11025;DHT22;22890;51.820;8.682;2023-06-10T04:53:21;18.10;99.90
11025;DHT22;22890;51.820;8.682;2023-06-10T04:55:48;18.20;99.90
11025;DHT22;22890;51.820;8.682;2023-06-10T04:58:15;18.30;99.90
11025;DHT22;22890;51.820;8.682;2023-06-10T05:00:42;18.30;99.90
11025;DHT22;22890;51.820;8.682;2023-06-10T05:03:10;18.40;99.90
11025;DHT22;22890;51.820;8.682;2023-06-10T05:05:36;18.70;99.90
11025;DHT22;22890;51.820;8.682;2023-06-10T05:08:03;18.70;99.90
11025;DHT22;22890;51.820;8.682;2023-06-10T05:10:34;18.80;99.90
11025;DHT22;22890;51.820;8.682;2023-06-10T05:13:01;19.00;99.90
11025;DHT22;22890;51.820;8.682;2023-06-10T05:15:27;19.20;99.90
11025;DHT22;22890;51.820;8.682;2023-06-10T05:17:56;19.50;99.90
11025;DHT22;22890;51.820;8.682;2023-06-10T05:20:25;19.50;99.90
11025;DHT22;22890;51.820;8.682;2023-06-10T05:22:52;19.60;99.90
11025;DHT22;22890;51.820;8.682;2023-06-10T05:25:19;19.80;99.90
11025;DHT22;22890;51.820;8.682;2023-06-10T05:27:45;19.90;99.90
11025;DHT22;22890;51.820;8.682;2023-06-10T05:30:12;20.10;99.90
11025;DHT22;22890;51.820;8.682;2023-06-10T05:32:39;20.20;99.90
11025;DHT22;22890;51.820;8.682;2023-06-10T05:35:06;20.40;99.90
11025;DHT22;22890;51.820;8.682;2023-06-10T05:37:34;20.50;99.90
11025;DHT22;22890;51.820;8.682;2023-06-10T05:40:03;20.60;99.90
11025;DHT22;22890;51.820;8.682;2023-06-10T05:42:31;20.80;99.90
11025;DHT22;22890;51.820;8.682;2023-06-10T05:44:57;20.90;99.90
11025;DHT22;22890;51.820;8.682;2023-06-10T05:47:24;21.10;99.90
11025;DHT22;22890;51.820;8.682;2023-06-10T05:49:51;21.20;99.90
11025;DHT22;22890;51.820;8.682;2023-06-10T05:52:18;21.50;99.90
11025;DHT22;22890;51.820;8.682;2023-06-10T05:54:45;21.50;99.90
11025;DHT22;22890;51.820;8.682;2023-06-10T05:57:12;21.70;99.90
11025;DHT22;22890;51.820;8.682;2023-06-10T05:59:38;21.80;99.90
11025;DHT22;22890;51.820;8.682;2023-06-10T06:02:05;22.00;99.90
11025;DHT22;22890;51.820;8.682;2023-06-10T06:04:32;22.10;99.90
11025;DHT22;22890;51.820;8.682;2023-06-10T06:06:59;22.20;99.90
11025;DHT22;22890;51.820;8.682;2023-06-10T06:09:25;22.30;99.90
11025;DHT22;22890;51.820;8.682;2023-06-10T06:11:52;22.40;99.90
11025;DHT22;22890;51.820;8.682;2023-06-10T06:14:19;22.50;99.90
11025;DHT22;22890;51.820;8.682;2023-06-10T06:16:45;22.60;99.90
11025;DHT22;22890;51.820;8.682;2023-06-10T06:19:12;22.80;99.90
11025;DHT22;22890;51.820;8.682;2023-06-10T06:21:39;22.90;99.90
11025;DHT22;22890;51.820;8.682;2023-06-10T06:24:06;23.00;99.90
11025;DHT22;22890;51.820;8.682;2023-06-10T06:26:33;23.10;99.90
11025;DHT22;22890;51.820;8.682;2023-06-10T06:29:00;23.20;99.90
11025;DHT22;22890;51.820;8.682;2023-06-10T06:31:26;23.30;99.30
11025;DHT22;22890;51.820;8.682;2023-06-10T06:33:53;23.40;98.60
11025;DHT22;22890;51.820;8.682;2023-06-10T06:36:20;23.50;98.10
11025;DHT22;22890;51.820;8.682;2023-06-10T06:38:46;23.60;97.60
11025;DHT22;22890;51.820;8.682;2023-06-10T06:41:13;23.60;97.40
11025;DHT22;22890;51.820;8.682;2023-06-10T06:43:40;23.70;97.30
11025;DHT22;22890;51.820;8.682;2023-06-10T06:46:22;23.80;97.10
11025;DHT22;22890;51.820;8.682;2023-06-10T06:48:49;23.20;96.70
11025;DHT22;22890;51.820;8.682;2023-06-10T06:51:16;24.00;97.00
11025;DHT22;22890;51.820;8.682;2023-06-10T06:53:43;24.10;96.60
11025;DHT22;22890;51.820;8.682;2023-06-10T06:56:12;24.20;96.10
11025;DHT22;22890;51.820;8.682;2023-06-10T06:58:39;24.30;96.00
11025;DHT22;22890;51.820;8.682;2023-06-10T07:01:06;24.40;95.70
11025;DHT22;22890;51.820;8.682;2023-06-10T07:03:32;24.50;95.70
11025;DHT22;22890;51.820;8.682;2023-06-10T07:05:59;24.60;95.90
11025;DHT22;22890;51.820;8.682;2023-06-10T07:08:26;24.70;96.00
11025;DHT22;22890;51.820;8.682;2023-06-10T07:10:52;24.80;96.10
11025;DHT22;22890;51.820;8.682;2023-06-10T07:13:20;24.80;95.90
11025;DHT22;22890;51.820;8.682;2023-06-10T07:15:47;24.90;95.90
11025;DHT22;22890;51.820;8.682;2023-06-10T07:18:15;25.00;95.60
11025;DHT22;22890;51.820;8.682;2023-06-10T07:20:42;25.00;95.60
11025;DHT22;22890;51.820;8.682;2023-06-10T07:23:09;25.10;95.70
11025;DHT22;22890;51.820;8.682;2023-06-10T07:25:35;25.20;95.60
11025;DHT22;22890;51.820;8.682;2023-06-10T07:28:02;25.30;95.50
11025;DHT22;22890;51.820;8.682;2023-06-10T07:30:29;25.30;95.50
11025;DHT22;22890;51.820;8.682;2023-06-10T07:32:56;25.40;94.90
11025;DHT22;22890;51.820;8.682;2023-06-10T07:35:23;25.50;94.60
11025;DHT22;22890;51.820;8.682;2023-06-10T07:37:50;24.20;92.90
11025;DHT22;22890;51.820;8.682;2023-06-10T07:40:16;25.60;93.40
11025;DHT22;22890;51.820;8.682;2023-06-10T07:42:43;25.70;93.40
11025;DHT22;22890;51.820;8.682;2023-06-10T07:45:10;25.70;93.20
11025;DHT22;22890;51.820;8.682;2023-06-10T07:47:37;25.80;93.10
11025;DHT22;22890;51.820;8.682;2023-06-10T07:50:04;25.80;93.20
11025;DHT22;22890;51.820;8.682;2023-06-10T07:52:31;25.90;93.10
11025;DHT22;22890;51.820;8.682;2023-06-10T07:54:58;25.90;93.00
11025;DHT22;22890;51.820;8.682;2023-06-10T07:57:25;26.00;92.80
11025;DHT22;22890;51.820;8.682;2023-06-10T07:59:51;26.00;92.50
11025;DHT22;22890;51.820;8.682;2023-06-10T08:02:18;26.10;92.70
11025;DHT22;22890;51.820;8.682;2023-06-10T08:04:45;25.30;92.20
11025;DHT22;22890;51.820;8.682;2023-06-10T08:07:12;26.20;92.80
11025;DHT22;22890;51.820;8.682;2023-06-10T08:09:38;26.30;92.50
11025;DHT22;22890;51.820;8.682;2023-06-10T08:12:06;26.30;92.10
11025;DHT22;22890;51.820;8.682;2023-06-10T08:14:36;26.20;91.60
11025;DHT22;22890;51.820;8.682;2023-06-10T08:17:03;26.20;91.70
11025;DHT22;22890;51.820;8.682;2023-06-10T08:19:32;26.20;91.80
11025;DHT22;22890;51.820;8.682;2023-06-10T08:21:59;26.20;91.60
11025;DHT22;22890;51.820;8.682;2023-06-10T08:24:25;26.10;91.70
11025;DHT22;22890;51.820;8.682;2023-06-10T08:26:52;27.60;92.40
11025;DHT22;22890;51.820;8.682;2023-06-10T08:29:19;26.00;91.90
11025;DHT22;22890;51.820;8.682;2023-06-10T08:31:45;26.00;92.20
11025;DHT22;22890;51.820;8.682;2023-06-10T08:34:12;26.00;92.40
11025;DHT22;22890;51.820;8.682;2023-06-10T08:36:39;26.10;92.30
11025;DHT22;22890;51.820;8.682;2023-06-10T08:39:06;26.10;92.20
11025;DHT22;22890;51.820;8.682;2023-06-10T08:41:42;26.10;92.20
11025;DHT22;22890;51.820;8.682;2023-06-10T08:44:42;26.10;92.30
11025;DHT22;22890;51.820;8.682;2023-06-10T08:47:16;26.20;92.60
11025;DHT22;22890;51.820;8.682;2023-06-10T08:49:45;26.20;92.50
11025;DHT22;22890;51.820;8.682;2023-06-10T08:52:18;26.20;92.40
11025;DHT22;22890;51.820;8.682;2023-06-10T08:54:59;26.20;92.50
11025;DHT22;22890;51.820;8.682;2023-06-10T08:57:27;26.20;92.80
11025;DHT22;22890;51.820;8.682;2023-06-10T08:59:55;26.30;93.00
11025;DHT22;22890;51.820;8.682;2023-06-10T09:02:24;26.30;93.00
11025;DHT22;22890;51.820;8.682;2023-06-10T09:04:51;25.50;92.60
11025;DHT22;22890;51.820;8.682;2023-06-10T09:07:20;26.40;92.90
11025;DHT22;22890;51.820;8.682;2023-06-10T09:09:48;26.50;93.10
11025;DHT22;22890;51.820;8.682;2023-06-10T09:12:15;26.60;93.10
11025;DHT22;22890;51.820;8.682;2023-06-10T09:14:42;26.70;93.30
11025;DHT22;22890;51.820;8.682;2023-06-10T09:17:10;26.80;93.00
11025;DHT22;22890;51.820;8.682;2023-06-10T09:19:38;26.80;92.80
11025;DHT22;22890;51.820;8.682;2023-06-10T09:22:05;26.90;92.80
11025;DHT22;22890;51.820;8.682;2023-06-10T09:24:32;26.90;92.60
11025;DHT22;22890;51.820;8.682;2023-06-10T09:27:07;26.90;92.50
11025;DHT22;22890;51.820;8.682;2023-06-10T09:32:20;27.00;92.50
11025;DHT22;22890;51.820;8.682;2023-06-10T09:34:47;27.00;92.90
11025;DHT22;22890;51.820;8.682;2023-06-10T09:37:20;26.90;92.70
11025;DHT22;22890;51.820;8.682;2023-06-10T09:40:07;26.90;93.10
11025;DHT22;22890;51.820;8.682;2023-06-10T09:42:38;26.80;93.00
11025;DHT22;22890;51.820;8.682;2023-06-10T09:45:06;26.80;93.20
11025;DHT22;22890;51.820;8.682;2023-06-10T09:47:33;26.80;93.00
11025;DHT22;22890;51.820;8.682;2023-06-10T09:50:00;26.80;92.80
11025;DHT22;22890;51.820;8.682;2023-06-10T09:52:29;26.90;92.90
11025;DHT22;22890;51.820;8.682;2023-06-10T09:55:00;26.80;93.00
11025;DHT22;22890;51.820;8.682;2023-06-10T09:57:31;26.90;93.10
11025;DHT22;22890;51.820;8.682;2023-06-10T10:00:05;26.90;93.00
11025;DHT22;22890;51.820;8.682;2023-06-10T10:02:47;27.00;92.80
11025;DHT22;22890;51.820;8.682;2023-06-10T10:05:15;27.00;92.80
11025;DHT22;22890;51.820;8.682;2023-06-10T10:07:43;27.00;92.60
11025;DHT22;22890;51.820;8.682;2023-06-10T10:10:11;27.10;92.80
11025;DHT22;22890;51.820;8.682;2023-06-10T10:12:39;27.20;93.30
11025;DHT22;22890;51.820;8.682;2023-06-10T10:15:07;27.20;93.00
11025;DHT22;22890;51.820;8.682;2023-06-10T10:17:41;27.20;93.10
11025;DHT22;22890;51.820;8.682;2023-06-10T10:20:13;27.30;92.80
11025;DHT22;22890;51.820;8.682;2023-06-10T10:22:43;27.30;92.70
11025;DHT22;22890;51.820;8.682;2023-06-10T10:25:19;27.30;93.10
11025;DHT22;22890;51.820;8.682;2023-06-10T10:27:59;27.00;92.60
11025;DHT22;22890;51.820;8.682;2023-06-10T10:30:30;27.30;92.40
11025;DHT22;22890;51.820;8.682;2023-06-10T10:33:10;27.40;92.80
11025;DHT22;22890;51.820;8.682;2023-06-10T10:35:39;27.40;92.40
11025;DHT22;22890;51.820;8.682;2023-06-10T10:38:06;27.40;92.70
11025;DHT22;22890;51.820;8.682;2023-06-10T10:40:34;27.40;92.50
11025;DHT22;22890;51.820;8.682;2023-06-10T10:43:01;27.50;92.30
11025;DHT22;22890;51.820;8.682;2023-06-10T10:45:29;27.50;92.40
11025;DHT22;22890;51.820;8.682;2023-06-10T10:47:56;27.50;92.00
11025;DHT22;22890;51.820;8.682;2023-06-10T10:50:24;27.50;91.60
11025;DHT22;22890;51.820;8.682;2023-06-10T10:55:23;27.60;92.00
11025;DHT22;22890;51.820;8.682;2023-06-10T10:57:54;27.60;91.90
11025;DHT22;22890;51.820;8.682;2023-06-10T11:00:30;27.60;91.80
11025;DHT22;22890;51.820;8.682;2023-06-10T11:03:05;27.60;91.70
11025;DHT22;22890;51.820;8.682;2023-06-10T11:05:41;27.60;91.40
11025;DHT22;22890;51.820;8.682;2023-06-10T11:08:11;27.70;91.10
11025;DHT22;22890;51.820;8.682;2023-06-10T11:10:51;27.70;90.60
11025;DHT22;22890;51.820;8.682;2023-06-10T11:13:20;27.80;90.80
11025;DHT22;22890;51.820;8.682;2023-06-10T11:15:51;27.80;90.50
11025;DHT22;22890;51.820;8.682;2023-06-10T11:18:26;27.70;90.40
11025;DHT22;22890;51.820;8.682;2023-06-10T11:25:51;27.80;90.00
11025;DHT22;22890;51.820;8.682;2023-06-10T11:28:19;27.90;88.40
11025;DHT22;22890;51.820;8.682;2023-06-10T11:30:46;27.80;87.90
11025;DHT22;22890;51.820;8.682;2023-06-10T11:33:17;27.80;88.40
11025;DHT22;22890;51.820;8.682;2023-06-10T11:35:44;27.80;87.50
11025;DHT22;22890;51.820;8.682;2023-06-10T11:38:11;27.80;88.10
11025;DHT22;22890;51.820;8.682;2023-06-10T11:40:38;27.80;88.40
11025;DHT22;22890;51.820;8.682;2023-06-10T11:43:05;27.70;88.20
11025;DHT22;22890;51.820;8.682;2023-06-10T11:45:32;27.80;89.00
11025;DHT22;22890;51.820;8.682;2023-06-10T11:47:59;27.80;88.40
11025;DHT22;22890;51.820;8.682;2023-06-10T11:50:33;27.80;87.60
11025;DHT22;22890;51.820;8.682;2023-06-10T11:53:00;27.80;87.40
11025;DHT22;22890;51.820;8.682;2023-06-10T11:55:47;27.80;87.10
11025;DHT22;22890;51.820;8.682;2023-06-10T11:58:18;27.80;87.60
11025;DHT22;22890;51.820;8.682;2023-06-10T12:00:51;27.90;88.10
11025;DHT22;22890;51.820;8.682;2023-06-10T12:03:18;27.90;88.00
11025;DHT22;22890;51.820;8.682;2023-06-10T12:06:03;27.90;88.20
11025;DHT22;22890;51.820;8.682;2023-06-10T12:08:30;27.90;89.30
11025;DHT22;22890;51.820;8.682;2023-06-10T12:11:02;27.90;90.00
11025;DHT22;22890;51.820;8.682;2023-06-10T12:13:29;27.90;90.10
11025;DHT22;22890;51.820;8.682;2023-06-10T12:16:07;27.90;90.10
11025;DHT22;22890;51.820;8.682;2023-06-10T12:18:34;27.90;90.30
11025;DHT22;22890;51.820;8.682;2023-06-10T12:21:01;27.90;90.20
11025;DHT22;22890;51.820;8.682;2023-06-10T12:23:27;27.90;90.40
11025;DHT22;22890;51.820;8.682;2023-06-10T12:25:55;27.80;90.80
11025;DHT22;22890;51.820;8.682;2023-06-10T12:28:23;27.80;90.90
11025;DHT22;22890;51.820;8.682;2023-06-10T12:30:50;27.80;91.00
11025;DHT22;22890;51.820;8.682;2023-06-10T12:33:21;27.80;90.90
11025;DHT22;22890;51.820;8.682;2023-06-10T12:35:49;29.00;91.50
11025;DHT22;22890;51.820;8.682;2023-06-10T12:38:24;27.80;91.20
11025;DHT22;22890;51.820;8.682;2023-06-10T12:40:51;27.80;91.10
11025;DHT22;22890;51.820;8.682;2023-06-10T12:43:22;27.80;91.00
11025;DHT22;22890;51.820;8.682;2023-06-10T12:45:50;27.70;90.90
11025;DHT22;22890;51.820;8.682;2023-06-10T12:48:21;27.70;91.20
11025;DHT22;22890;51.820;8.682;2023-06-10T12:50:52;27.70;91.10
11025;DHT22;22890;51.820;8.682;2023-06-10T12:53:19;27.60;91.00
11025;DHT22;22890;51.820;8.682;2023-06-10T12:55:47;27.60;91.30
11025;DHT22;22890;51.820;8.682;2023-06-10T12:58:14;27.70;91.20
11025;DHT22;22890;51.820;8.682;2023-06-10T13:00:41;27.70;91.50
11025;DHT22;22890;51.820;8.682;2023-06-10T13:03:09;27.70;91.30
11025;DHT22;22890;51.820;8.682;2023-06-10T13:05:37;27.70;91.40
11025;DHT22;22890;51.820;8.682;2023-06-10T13:08:08;27.60;91.20
11025;DHT22;22890;51.820;8.682;2023-06-10T13:10:38;27.70;91.00
11025;DHT22;22890;51.820;8.682;2023-06-10T13:13:05;27.80;90.90
11025;DHT22;22890;51.820;8.682;2023-06-10T13:15:33;27.70;91.00
11025;DHT22;22890;51.820;8.682;2023-06-10T13:18:07;27.70;91.10
11025;DHT22;22890;51.820;8.682;2023-06-10T13:20:34;27.80;91.50
11025;DHT22;22890;51.820;8.682;2023-06-10T13:23:01;27.80;91.50
11025;DHT22;22890;51.820;8.682;2023-06-10T13:25:28;27.80;91.30
11025;DHT22;22890;51.820;8.682;2023-06-10T13:27:54;27.90;90.50
11025;DHT22;22890;51.820;8.682;2023-06-10T13:30:22;27.90;90.30
11025;DHT22;22890;51.820;8.682;2023-06-10T13:32:48;27.90;90.60
11025;DHT22;22890;51.820;8.682;2023-06-10T13:35:15;31.30;91.80
11025;DHT22;22890;51.820;8.682;2023-06-10T13:37:42;27.90;90.90
11025;DHT22;22890;51.820;8.682;2023-06-10T13:40:09;27.90;91.20
11025;DHT22;22890;51.820;8.682;2023-06-10T13:42:36;28.00;91.40
11025;DHT22;22890;51.820;8.682;2023-06-10T13:45:06;28.00;91.30
11025;DHT22;22890;51.820;8.682;2023-06-10T13:47:33;28.00;91.00
11025;DHT22;22890;51.820;8.682;2023-06-10T13:50:00;28.00;91.00
11025;DHT22;22890;51.820;8.682;2023-06-10T13:52:27;28.10;91.20
11025;DHT22;22890;51.820;8.682;2023-06-10T13:54:54;28.10;90.80
11025;DHT22;22890;51.820;8.682;2023-06-10T13:57:20;28.10;90.50
11025;DHT22;22890;51.820;8.682;2023-06-10T13:59:47;28.10;90.40
11025;DHT22;22890;51.820;8.682;2023-06-10T14:02:14;28.10;90.80
11025;DHT22;22890;51.820;8.682;2023-06-10T14:04:41;28.10;91.10
11025;DHT22;22890;51.820;8.682;2023-06-10T14:07:08;28.20;91.20
11025;DHT22;22890;51.820;8.682;2023-06-10T14:09:35;28.20;91.20
11025;DHT22;22890;51.820;8.682;2023-06-10T14:12:01;28.30;90.90
11025;DHT22;22890;51.820;8.682;2023-06-10T14:14:29;28.20;91.00
11025;DHT22;22890;51.820;8.682;2023-06-10T14:16:57;28.20;91.20
11025;DHT22;22890;51.820;8.682;2023-06-10T14:19:24;28.20;91.60
11025;DHT22;22890;51.820;8.682;2023-06-10T14:21:51;28.20;91.50
11025;DHT22;22890;51.820;8.682;2023-06-10T14:24:20;28.30;91.30
11025;DHT22;22890;51.820;8.682;2023-06-10T14:26:47;28.30;91.00
11025;DHT22;22890;51.820;8.682;2023-06-10T14:29:14;28.40;91.20
11025;DHT22;22890;51.820;8.682;2023-06-10T14:31:41;28.40;91.90
11025;DHT22;22890;51.820;8.682;2023-06-10T14:34:08;28.50;91.90
11025;DHT22;22890;51.820;8.682;2023-06-10T14:36:35;28.50;91.90
11025;DHT22;22890;51.820;8.682;2023-06-10T14:39:03;28.60;91.60
11025;DHT22;22890;51.820;8.682;2023-06-10T14:41:30;28.60;91.20
11025;DHT22;22890;51.820;8.682;2023-06-10T14:43:57;28.60;91.30
11025;DHT22;22890;51.820;8.682;2023-06-10T14:46:24;28.60;91.10
11025;DHT22;22890;51.820;8.682;2023-06-10T14:48:50;28.60;91.10
11025;DHT22;22890;51.820;8.682;2023-06-10T14:51:17;28.60;91.20
11025;DHT22;22890;51.820;8.682;2023-06-10T14:53:44;28.40;91.40
11025;DHT22;22890;51.820;8.682;2023-06-10T14:56:12;28.40;91.50
11025;DHT22;22890;51.820;8.682;2023-06-10T14:58:38;28.30;91.60
11025;DHT22;22890;51.820;8.682;2023-06-10T15:01:05;28.40;91.60
11025;DHT22;22890;51.820;8.682;2023-06-10T15:03:32;28.40;92.00
11025;DHT22;22890;51.820;8.682;2023-06-10T15:05:59;28.40;92.00
11025;DHT22;22890;51.820;8.682;2023-06-10T15:08:27;28.40;92.00
11025;DHT22;22890;51.820;8.682;2023-06-10T15:10:54;28.40;91.80
11025;DHT22;22890;51.820;8.682;2023-06-10T15:13:21;28.40;92.10
11025;DHT22;22890;51.820;8.682;2023-06-10T15:15:47;28.30;92.50
11025;DHT22;22890;51.820;8.682;2023-06-10T15:18:14;28.40;92.40
11025;DHT22;22890;51.820;8.682;2023-06-10T15:20:41;28.40;92.10
11025;DHT22;22890;51.820;8.682;2023-06-10T15:23:08;28.40;91.90
11025;DHT22;22890;51.820;8.682;2023-06-10T15:25:34;28.40;92.10
11025;DHT22;22890;51.820;8.682;2023-06-10T15:28:02;28.40;92.50
11025;DHT22;22890;51.820;8.682;2023-06-10T15:30:31;28.40;92.40
11025;DHT22;22890;51.820;8.682;2023-06-10T15:32:58;28.30;92.60
11025;DHT22;22890;51.820;8.682;2023-06-10T15:35:25;28.30;92.80
11025;DHT22;22890;51.820;8.682;2023-06-10T15:37:52;28.20;93.10
11025;DHT22;22890;51.820;8.682;2023-06-10T15:40:19;28.00;93.10
11025;DHT22;22890;51.820;8.682;2023-06-10T15:42:46;27.90;92.90
11025;DHT22;22890;51.820;8.682;2023-06-10T15:45:13;27.90;92.90
11025;DHT22;22890;51.820;8.682;2023-06-10T15:47:40;27.80;93.20
11025;DHT22;22890;51.820;8.682;2023-06-10T15:50:08;27.80;93.50